»·PEaware :: N716TH L52-KBFL

N716TH :: L52-KBFL

FLIGHT INFORMATION

Flight Status: Arrived
Operator: Privately registered:
United States
More flights under this callsign
Pilot: Danny R. (17997)
Aircraft: CESSNA 172 SKYHAWK
(C172)
More flights by this aircraft type
Origin: L52 Oceano Co
United States
Destination: KBFL Meadows
United States
More flights between these airports :: More routes between these airports
Route: L52 KPRB AVE KBFL
File this flight plan on PilotEdge
Remarks:
Altitude:
(Current/Filed)
5,500ft
Speed:
(Current/Filed)
100kts
Departed: 01-Feb-18 10:09 AM
Arrived: 01-Feb-18 11:46 AM
Distance/Time
Traveled:
80nm/1:37
Distance/Time
To Go:
Arrived

Flight Plot

Page will automatically refresh every two minutes.

Flight plan parsing failed; only flown route is shown


Map Options




Map Legend


Flown Route
Filed Route
Departure Airport
Arrival Airport
Navaid (VOR, NDB)
Fix

Horizontal Profiles

Position Reports

Time Latitude Longitude Heading Altitude Ground
Speed
01-Feb-18 09:58 35.103274 -120.624320 33 18ft 0kts
01-Feb-18 09:59 35.103274 -120.624320 33 18ft 0kts
01-Feb-18 10:00 35.103274 -120.624320 33 18ft 0kts
01-Feb-18 10:01 35.103274 -120.624320 33 18ft 0kts
01-Feb-18 10:02 35.103274 -120.624320 33 18ft 0kts
01-Feb-18 10:03 35.103274 -120.624320 33 18ft 0kts
01-Feb-18 10:04 35.103274 -120.624320 33 18ft 0kts
01-Feb-18 10:05 35.103274 -120.624320 33 18ft 0kts
01-Feb-18 10:06 35.103274 -120.624320 33 18ft 0kts
01-Feb-18 10:07 35.103274 -120.624320 33 18ft 0kts
01-Feb-18 10:08 35.103098 -120.623835 143 18ft 6kts
01-Feb-18 10:09 35.102106 -120.624315 156 18ft 9kts
01-Feb-18 10:10 35.099834 -120.620123 120 18ft 10kts
01-Feb-18 10:11 35.099439 -120.619568 74 18ft 0kts
01-Feb-18 10:12 35.099439 -120.619568 75 18ft 0kts
01-Feb-18 10:13 35.099439 -120.619568 75 18ft 0kts
01-Feb-18 10:14 35.099499 -120.619470 36 18ft 0kts
01-Feb-18 10:15 35.105541 -120.630206 296 308ft 69kts
01-Feb-18 10:16 35.114837 -120.651500 307 1085ft 73kts
01-Feb-18 10:17 35.133832 -120.659018 358 1842ft 74kts
01-Feb-18 10:18 35.154161 -120.657443 2 2571ft 74kts
01-Feb-18 10:19 35.174579 -120.656555 353 3274ft 72kts
01-Feb-18 10:20 35.194427 -120.656911 359 3899ft 75kts
01-Feb-18 10:21 35.216302 -120.655965 0 4490ft 81kts
01-Feb-18 10:22 35.239173 -120.654645 1 5083ft 83kts
01-Feb-18 10:23 35.263810 -120.653114 1 5512ft 99kts
01-Feb-18 10:24 35.292016 -120.651247 2 5532ft 96kts
01-Feb-18 10:25 35.318495 -120.649614 1 5532ft 95kts
01-Feb-18 10:26 35.345100 -120.647987 1 5532ft 95kts
01-Feb-18 10:27 35.371643 -120.646345 1 5531ft 95kts
01-Feb-18 10:28 35.398200 -120.644744 1 5530ft 95kts
01-Feb-18 10:29 35.424041 -120.643156 0 5586ft 91kts
01-Feb-18 10:30 35.449071 -120.641612 2 5587ft 89kts
01-Feb-18 10:31 35.473571 -120.640109 2 5583ft 87kts
01-Feb-18 10:32 35.497454 -120.638653 2 5581ft 86kts
01-Feb-18 10:33 35.521359 -120.637145 2 5363ft 88kts
01-Feb-18 10:34 35.545735 -120.635597 2 4797ft 84kts
01-Feb-18 10:35 35.568323 -120.634189 2 4138ft 79kts
01-Feb-18 10:36 35.590312 -120.632882 2 3455ft 79kts
01-Feb-18 10:37 35.612231 -120.631556 3 2797ft 75kts
01-Feb-18 10:38 35.630182 -120.643031 326 2605ft 74kts
01-Feb-18 10:39 35.644902 -120.660057 313 2887ft 73kts
01-Feb-18 10:40 35.661100 -120.675747 17 3087ft 83kts
01-Feb-18 10:41 35.666116 -120.649235 115 2335ft 81kts
01-Feb-18 10:42 35.650038 -120.633193 140 1828ft 69kts
01-Feb-18 10:43 35.643823 -120.615513 50 1684ft 66kts
01-Feb-18 10:44 35.655949 -120.607437 325 1228ft 58kts
01-Feb-18 10:45 35.668281 -120.618767 325 839ft 44kts
01-Feb-18 10:46 35.682359 -120.631712 323 1281ft 75kts
01-Feb-18 10:47 35.673740 -120.652785 221 1728ft 91kts
01-Feb-18 10:48 35.651216 -120.648207 139 1773ft 101kts
01-Feb-18 10:49 35.633274 -120.631422 137 1764ft 71kts
01-Feb-18 10:50 35.641485 -120.613333 41 1745ft 67kts
01-Feb-18 10:51 35.655835 -120.607505 331 1436ft 62kts
01-Feb-18 10:52 35.668346 -120.618844 326 839ft 43kts
01-Feb-18 10:53 35.682812 -120.632140 322 1330ft 76kts
01-Feb-18 10:54 35.697423 -120.633998 108 1969ft 95kts
01-Feb-18 10:55 35.681049 -120.609839 130 2741ft 89kts
01-Feb-18 10:56 35.671481 -120.583474 88 3396ft 92kts
01-Feb-18 10:57 35.671026 -120.550521 87 3898ft 101kts
01-Feb-18 10:58 35.670196 -120.515786 88 4454ft 97kts
01-Feb-18 10:59 35.669454 -120.486909 86 5253ft 73kts
01-Feb-18 11:00 35.668621 -120.457855 88 5440ft 92kts
01-Feb-18 11:01 35.667669 -120.425845 88 5439ft 94kts
01-Feb-18 11:02 35.666931 -120.393510 87 5438ft 94kts
01-Feb-18 11:03 35.666448 -120.360988 87 5438ft 94kts
01-Feb-18 11:04 35.665991 -120.332063 88 5500ft 91kts
01-Feb-18 11:05 35.664623 -120.300331 114 5498ft 96kts
01-Feb-18 11:06 35.656307 -120.269368 94 5476ft 96kts
01-Feb-18 11:07 35.654361 -120.236856 89 5470ft 94kts
01-Feb-18 11:08 35.653416 -120.204585 88 5469ft 94kts
01-Feb-18 11:09 35.652632 -120.173244 91 5528ft 91kts
01-Feb-18 11:10 35.651828 -120.141207 90 5490ft 94kts
01-Feb-18 11:11 35.651021 -120.109364 89 5487ft 92kts
01-Feb-18 11:12 35.650220 -120.077705 89 5485ft 92kts
01-Feb-18 11:13 35.649423 -120.046120 89 5484ft 92kts
01-Feb-18 11:14 35.648590 -120.014466 90 5483ft 92kts
01-Feb-18 11:15 35.647759 -119.982838 90 5483ft 92kts
01-Feb-18 11:16 35.641232 -119.952465 110 5486ft 93kts
01-Feb-18 11:17 35.632436 -119.922428 106 5481ft 93kts
01-Feb-18 11:18 35.624107 -119.892048 106 5477ft 93kts
01-Feb-18 11:19 35.615865 -119.861779 106 5475ft 93kts
01-Feb-18 11:20 35.607636 -119.831540 106 5474ft 93kts
01-Feb-18 11:21 35.599391 -119.801261 108 5470ft 93kts
01-Feb-18 11:22 35.591107 -119.770850 108 5466ft 93kts
01-Feb-18 11:23 35.582812 -119.740521 108 5465ft 93kts
01-Feb-18 11:24 35.574529 -119.710222 108 5464ft 93kts
01-Feb-18 11:25 35.566793 -119.681524 108 5459ft 93kts
01-Feb-18 11:26 35.558389 -119.651177 108 5456ft 93kts
01-Feb-18 11:27 35.550061 -119.620924 108 5455ft 93kts
01-Feb-18 11:28 35.541739 -119.590566 108 5454ft 93kts
01-Feb-18 11:29 35.533417 -119.560267 108 5448ft 93kts
01-Feb-18 11:30 35.525065 -119.529928 108 5449ft 93kts
01-Feb-18 11:31 35.516766 -119.499814 108 5450ft 93kts
01-Feb-18 11:32 35.509224 -119.469258 106 5460ft 92kts
01-Feb-18 11:33 35.500695 -119.439194 111 5381ft 97kts
01-Feb-18 11:34 35.491834 -119.409358 108 4887ft 89kts
01-Feb-18 11:35 35.490715 -119.379437 98 4386ft 88kts
01-Feb-18 11:36 35.484853 -119.350076 105 3885ft 92kts
01-Feb-18 11:37 35.478914 -119.326190 107 3731ft 87kts
01-Feb-18 11:38 35.471555 -119.297768 107 3543ft 87kts
01-Feb-18 11:39 35.462903 -119.264602 107 3496ft 84kts
01-Feb-18 11:40 35.455765 -119.237349 107 3494ft 84kts
01-Feb-18 11:41 35.448606 -119.210071 107 3492ft 83kts
01-Feb-18 11:42 35.442570 -119.187155 107 3389ft 86kts
01-Feb-18 11:43 35.435692 -119.159081 95 3171ft 85kts
01-Feb-18 11:44 35.433496 -119.129767 98 2939ft 87kts
01-Feb-18 11:45 35.428976 -119.100696 101 2629ft 86kts
01-Feb-18 11:46 35.423354 -119.076556 135 1852ft 66kts
01-Feb-18 11:47 35.409383 -119.060580 134 1592ft 71kts
01-Feb-18 11:48 35.395862 -119.042182 131 1750ft 74kts
01-Feb-18 11:49 35.401553 -119.023275 40 1514ft 68kts
01-Feb-18 11:50 35.415031 -119.032998 315 962ft 61kts
01-Feb-18 11:51 35.427352 -119.048231 316 636ft 61kts
01-Feb-18 11:52 35.436058 -119.058087 32 510ft 13kts
01-Feb-18 11:53 35.436321 -119.057530 84 510ft 3kts
01-Feb-18 11:54 35.434710 -119.055010 134 510ft 10kts
01-Feb-18 11:55 35.432407 -119.052325 136 510ft 4kts
01-Feb-18 11:56 35.431797 -119.051492 134 510ft 11kts
01-Feb-18 11:57 35.428750 -119.047892 137 510ft 10kts
01-Feb-18 11:58 35.428454 -119.047180 39 510ft 5kts
01-Feb-18 11:59 35.429577 -119.047044 48 510ft 7kts
01-Feb-18 12:00 35.429436 -119.046545 145 510ft 0kts
01-Feb-18 12:01 35.429436 -119.046545 145 510ft 0kts

Navigation Log

Ident Type
Flight plan parsing failed, navigation log unavailable